1913 NOT_NAMED (1913205N20122)


IBTrACS version v04r00. Visit IBTrACS website for data access.
Please direct all questions to the IBTrACS Q and A forum

Storm track - Intensity - Wind Radii - Intensity Data - Source Data - All data

Summary Information

Storm ID 1913205N20122
Start Jul 23 22Z
Landfall Jul 26 22Z, Jul 28 09Z
End Jul 28 22Z
ATCF IDs
Track status Best track data.

Storm track plot

Map of storm track

Intensity plots

No Intensity information for this storm


Radial wind information

No radial wind information for this storm


Position and Intensity Table

BASIN ISO_TIME_________ NATURE LAT LON
degrees north degrees east
WP 1913-07-23 22:00:00 NR 20.40 122.00
WP 1913-07-24 00:00:00 NR 20.32 121.68
WP 03:00:00 NR 20.19 121.20
WP 06:00:00 NR 20.07 120.73
WP 09:00:00 NR 19.94 120.26
WP 10:00:00 NR 19.90 120.10
WP 12:00:00 NR 19.82 119.79
WP 15:00:00 NR 19.69 119.33
WP 18:00:00 NR 19.57 118.86
WP 21:00:00 NR 19.44 118.37
WP 22:00:00 NR 19.40 118.20
WP 1913-07-25 00:00:00 NR 19.31 117.86
WP 03:00:00 NR 19.18 117.32
WP 06:00:00 NR 19.05 116.77
WP 09:00:00 NR 18.93 116.19
WP 10:00:00 NR 18.90 116.00
WP 12:00:00 NR 18.82 115.58
WP 15:00:00 NR 18.71 114.94
WP 18:00:00 NR 18.63 114.32
WP 21:00:00 NR 18.60 113.77
WP 22:00:00 NR 18.60 113.60
WP 1913-07-26 00:00:00 NR 18.64 113.32
WP 03:00:00 NR 18.75 112.98
WP 06:00:00 NR 18.90 112.68
WP 09:00:00 NR 19.05 112.40
WP 10:00:00 NR 19.10 112.30
WP 12:00:00 NR 19.17 112.07
WP 15:00:00 NR 19.26 111.71
WP 18:00:00 NR 19.36 111.36
WP 21:00:00 NR 19.46 111.01
WP 22:00:00 NR 19.50 110.90
WP 1913-07-27 00:00:00 NR 19.59 110.68
WP 03:00:00 NR 19.74 110.36
WP 06:00:00 NR 19.90 110.07
WP 09:00:00 NR 20.05 109.79
WP 10:00:00 NR 20.10 109.70
WP 12:00:00 NR 20.18 109.54
WP 15:00:00 NR 20.29 109.32
WP 18:00:00 NR 20.41 109.11
WP 21:00:00 NR 20.55 108.88
WP 22:00:00 NR 20.60 108.80
WP 1913-07-28 00:00:00 NR 20.72 108.62
WP 03:00:00 NR 20.93 108.32
WP 06:00:00 NR 21.16 108.02
WP 09:00:00 NR 21.41 107.70
WP 10:00:00 NR 21.50 107.60
WP 12:00:00 NR 21.68 107.40
WP 15:00:00 NR 21.95 107.09
WP 18:00:00 NR 22.23 106.79
WP 21:00:00 NR 22.51 106.50
WP 22:00:00 NR 22.60 106.40

Source Information

Agency Information
USA
TOKYO
CMA
HKO
NEWDELHI
REUNION
BOM
NADI
WELLINGTON
DS824
TD9636 cons_worldwide_trop_cyclone_18710101-19891231-003:Line=4612
TD9635
NEUMANN
MLC

All available IBTrACS Data

SEASON BASIN SUBBASIN ISO_TIME_________ NATURE LAT LON DIST2LAND LANDFALL IFLAG USA SSHS TD9636 LAT TD9636 LON TD9636 STAGE STORM SPEED STORM DIR
Year degrees north degrees east km km 1 degrees north degrees east kts degrees
1913 WP MM 1913-07-23 22:00:00 NR 20.40 122.00 202 191 __________O___ -1 20.40 122.00 7 9 255
1913 WP MM 1913-07-24 00:00:00 NR 20.32 121.68 197 181 __________P___ -1 20.32 121.68 7 9 255
1913 WP MM 03:00:00 NR 20.19 121.20 181 167 __________P___ -1 20.19 121.20 7 9 254
1913 WP MM 06:00:00 NR 20.07 120.73 168 154 __________P___ -1 20.07 120.73 7 9 254
1913 WP MM 09:00:00 NR 19.94 120.26 154 158 __________P___ -1 19.94 120.26 7 9 254
1913 WP MM 10:00:00 NR 19.90 120.10 162 162 __________O___ -1 19.90 120.10 7 9 254
1913 WP MM 12:00:00 NR 19.82 119.79 170 170 __________P___ -1 19.82 119.79 7 9 254
1913 WP MM 15:00:00 NR 19.69 119.33 199 199 __________P___ -1 19.69 119.33 7 9 254
1913 WP MM 18:00:00 NR 19.57 118.86 223 225 __________P___ -1 19.57 118.86 7 9 255
1913 WP MM 21:00:00 NR 19.44 118.37 257 266 __________P___ -1 19.44 118.37 7 10 255
1913 WP MM 22:00:00 NR 19.40 118.20 276 276 __________O___ -1 19.40 118.20 3 10 255
1913 WP MM 1913-07-25 00:00:00 NR 19.31 117.86 301 311 __________P___ -1 19.31 117.86 3 10 255
1913 WP MM 03:00:00 NR 19.18 117.32 358 358 __________P___ -1 19.18 117.32 3 11 256
1913 WP MM 06:00:00 NR 19.05 116.77 405 411 __________P___ -1 19.05 116.77 3 11 257
1913 WP MM 09:00:00 NR 18.93 116.19 424 418 __________P___ -1 18.93 116.19 3 11 258
1913 WP MM 10:00:00 NR 18.90 116.00 418 411 __________O___ -1 18.90 116.00 4 12 259
1913 WP MM 12:00:00 NR 18.82 115.58 414 402 __________P___ -1 18.82 115.58 4 12 259
1913 WP MM 15:00:00 NR 18.71 114.94 407 364 __________P___ -1 18.71 114.94 4 12 261
1913 WP MM 18:00:00 NR 18.63 114.32 364 314 __________P___ -1 18.63 114.32 4 11 264
1913 WP MM 21:00:00 NR 18.60 113.77 314 295 __________P___ -1 18.60 113.77 4 10 268
1913 WP MM 22:00:00 NR 18.60 113.60 295 266 __________O___ -1 18.60 113.60 4 8 276
1913 WP MM 1913-07-26 00:00:00 NR 18.64 113.32 266 232 __________P___ -1 18.64 113.32 4 7 284
1913 WP MM 03:00:00 NR 18.75 112.98 232 194 __________P___ -1 18.75 112.98 4 7 293
1913 WP MM 06:00:00 NR 18.90 112.68 194 157 __________P___ -1 18.90 112.68 4 6 299
1913 WP MM 09:00:00 NR 19.05 112.40 157 147 __________P___ -1 19.05 112.40 4 6 299
1913 WP MM 10:00:00 NR 19.10 112.30 147 123 __________O___ -1 19.10 112.30 4 7 290
1913 WP MM 12:00:00 NR 19.17 112.07 123 80 __________P___ -1 19.17 112.07 4 7 286
1913 WP MM 15:00:00 NR 19.26 111.71 80 47 __________P___ -1 19.26 111.71 4 7 286
1913 WP MM 18:00:00 NR 19.36 111.36 47 10 __________P___ -1 19.36 111.36 4 7 287
1913 WP MM 21:00:00 NR 19.46 111.01 10 0 __________P___ -1 19.46 111.01 4 7 289
1913 WP MM 22:00:00 NR 19.50 110.90 0 0 __________O___ -1 19.50 110.90 4 7 293
1913 WP MM 1913-07-27 00:00:00 NR 19.59 110.68 0 0 __________P___ -1 19.59 110.68 4 7 295
1913 WP MM 03:00:00 NR 19.74 110.36 0 0 __________P___ -1 19.74 110.36 4 7 298
1913 WP MM 06:00:00 NR 19.90 110.07 0 0 __________P___ -1 19.90 110.07 4 6 300
1913 WP MM 09:00:00 NR 20.05 109.79 15 15 __________P___ -1 20.05 109.79 4 6 301
1913 WP MM 10:00:00 NR 20.10 109.70 22 22 __________O___ -1 20.10 109.70 4 5 299
1913 WP MM 12:00:00 NR 20.18 109.54 33 33 __________P___ -1 20.18 109.54 4 5 298
1913 WP MM 15:00:00 NR 20.29 109.32 49 49 __________P___ -1 20.29 109.32 4 5 299
1913 WP MM 18:00:00 NR 20.41 109.11 69 69 __________P___ -1 20.41 109.11 4 5 302
1913 WP MM 21:00:00 NR 20.55 108.88 88 86 __________P___ -1 20.55 108.88 4 5 304
1913 WP MM 22:00:00 NR 20.60 108.80 96 93 __________O___ -1 20.60 108.80 2 6 305
1913 WP MM 1913-07-28 00:00:00 NR 20.72 108.62 98 67 __________P___ -1 20.72 108.62 2 7 306
1913 WP MM 03:00:00 NR 20.93 108.32 67 24 __________P___ -1 20.93 108.32 2 7 308
1913 WP MM 06:00:00 NR 21.16 108.02 24 0 __________P___ -1 21.16 108.02 2 8 310
1913 WP MM 09:00:00 NR 21.41 107.70 0 0 __________P___ -1 21.41 107.70 2 8 311
1913 WP MM 10:00:00 NR 21.50 107.60 0 0 __________O___ -1 21.50 107.60 2 8 313
1913 WP MM 12:00:00 NR 21.68 107.40 0 0 __________P___ -1 21.68 107.40 2 8 314
1913 WP MM 15:00:00 NR 21.95 107.09 0 0 __________P___ -1 21.95 107.09 2 8 315
1913 WP MM 18:00:00 NR 22.23 106.79 0 0 __________P___ -1 22.23 106.79 2 8 315
1913 WP MM 21:00:00 NR 22.51 106.50 0 0 __________P___ -1 22.51 106.50 2 8 316
1913 WP MM 22:00:00 NR 22.60 106.40 0 __________O___ -1 22.60 106.40 7 8 316